createdAt,value
2023-02-25T01:23:27.865Z,9.02
2023-02-25T01:25:00.907Z,12.00
2023-02-25T01:26:36.925Z,10.88
2023-02-25T01:28:09.894Z,13.65
2023-02-25T01:29:43.331Z,11.73
2023-02-25T01:32:50.289Z,14.45
2023-02-25T01:34:23.427Z,13.95
2023-02-25T01:35:56.353Z,14.43
2023-02-25T01:37:28.482Z,14.88
2023-02-25T01:41:02.966Z,17.77
2023-02-25T01:42:34.904Z,19.58
2023-02-25T01:44:13.983Z,19.65
2023-02-25T01:45:47.010Z,18.30
2023-02-25T01:47:21.275Z,15.90
2023-02-25T01:48:54.198Z,16.83
2023-02-25T01:50:34.785Z,15.45
2023-02-25T01:52:10.894Z,17.58
2023-02-25T01:53:46.428Z,19.27
2023-02-25T01:55:20.181Z,18.52
2023-02-25T01:56:56.681Z,17.67
2023-02-25T01:58:29.990Z,19.40
2023-02-25T02:01:44.657Z,16.27
2023-02-25T02:03:16.667Z,17.58
2023-02-25T02:04:52.377Z,15.20
2023-02-25T02:06:29.417Z,16.00
2023-02-25T02:08:02.426Z,13.68
2023-02-25T02:09:35.808Z,15.27
2023-02-25T02:12:45.138Z,15.07
2023-02-25T02:14:26.712Z,14.23
2023-02-25T02:16:10.347Z,14.13
2023-02-25T02:17:49.694Z,15.77
2023-02-25T02:19:39.481Z,14.63
2023-02-25T02:21:30.866Z,16.38
2023-02-25T02:23:28.121Z,16.13
2023-02-25T02:25:41.447Z,14.00
2023-02-25T02:27:25.796Z,11.90
2023-02-25T02:29:35.279Z,16.48
2023-02-25T02:31:20.721Z,13.02
2023-02-25T02:32:58.718Z,13.40
2023-02-25T02:34:41.394Z,14.93
2023-02-25T02:36:22.405Z,13.32
2023-02-25T02:38:04.781Z,13.02
2023-02-25T02:39:49.504Z,13.93
2023-02-25T02:41:30.760Z,13.20
2023-02-25T02:43:11.856Z,11.70
2023-02-25T02:44:53.168Z,10.85
2023-02-25T02:46:33.388Z,10.27
2023-02-25T02:48:10.669Z,12.45
2023-02-25T02:49:49.403Z,11.10
2023-02-25T02:51:27.822Z,10.40
2023-02-25T02:53:07.838Z,10.13
2023-02-25T02:54:44.294Z,12.05
2023-02-25T02:56:20.180Z,12.18
2023-02-25T02:57:58.003Z,11.40
2023-02-25T02:59:35.255Z,13.23
2023-02-25T03:01:13.766Z,14.93
2023-02-25T03:02:52.403Z,17.98
2023-02-25T03:04:31.921Z,13.60
2023-02-25T03:06:07.481Z,11.70
2023-02-25T03:07:45.057Z,13.13
2023-02-25T03:09:22.409Z,14.93
2023-02-25T03:10:55.670Z,12.00
2023-02-25T03:12:28.536Z,10.32
2023-02-25T03:14:01.727Z,14.45
2023-02-25T03:15:35.495Z,19.08
2023-02-25T03:17:12.208Z,12.15
2023-02-25T03:18:55.100Z,13.25
2023-02-25T03:20:31.048Z,17.97
2023-02-25T03:22:09.748Z,11.70
2023-02-25T03:23:44.929Z,19.98
2023-02-25T03:25:22.693Z,12.95
2023-02-25T03:26:55.677Z,11.45
2023-02-25T03:28:31.911Z,12.55
2023-02-25T03:30:09.548Z,14.77
2023-02-25T03:31:46.731Z,13.43
2023-02-25T03:33:26.974Z,14.82
2023-02-25T03:35:04.076Z,14.65
2023-02-25T03:36:41.197Z,13.95
2023-02-25T03:38:17.570Z,16.45
2023-02-25T03:39:56.278Z,11.73
2023-02-25T03:41:35.823Z,12.57
2023-02-25T03:43:13.014Z,14.25
2023-02-25T03:44:50.173Z,11.85
2023-02-25T03:46:23.260Z,13.18
2023-02-25T03:47:59.065Z,15.10
2023-02-25T03:49:36.506Z,13.23
2023-02-25T03:51:11.264Z,12.57
2023-02-25T03:52:44.197Z,11.63
2023-02-25T03:54:17.592Z,10.18
2023-02-25T03:57:25.030Z,12.15
2023-02-25T03:58:57.010Z,8.93
2023-02-25T04:00:32.268Z,9.80
2023-02-25T04:02:04.829Z,10.63
2023-02-25T04:03:37.829Z,13.40
2023-02-25T04:05:11.262Z,11.10
2023-02-25T04:08:17.368Z,15.88
2023-02-25T04:09:50.326Z,14.20
2023-02-25T04:11:23.308Z,13.90
2023-02-25T04:12:56.276Z,7.30
2023-02-25T04:14:29.286Z,10.35
2023-02-25T04:16:02.304Z,9.43
2023-02-25T04:17:36.076Z,8.57
2023-02-25T04:19:09.055Z,9.98
2023-02-25T04:20:42.172Z,13.77
2023-02-25T04:22:16.634Z,12.70
2023-02-25T04:23:49.630Z,8.85
2023-02-25T04:25:22.848Z,12.07
2023-02-25T04:26:58.435Z,8.98
2023-02-25T04:28:31.525Z,9.85
2023-02-25T04:30:05.542Z,12.43
2023-02-25T04:31:38.692Z,10.05
2023-02-25T04:33:12.638Z,12.82
2023-02-25T04:34:45.615Z,9.90
2023-02-25T04:36:26.482Z,9.02
2023-02-25T04:38:00.834Z,9.10
2023-02-25T04:39:34.091Z,10.05
2023-02-25T04:41:07.102Z,10.45
2023-02-25T04:42:39.209Z,9.32
2023-02-25T04:44:12.655Z,10.10
2023-02-25T04:45:46.718Z,10.15
2023-02-25T04:47:19.242Z,7.43
2023-02-25T04:48:52.236Z,8.00
2023-02-25T04:50:26.026Z,9.35
2023-02-25T04:51:59.578Z,11.73
2023-02-25T04:53:34.227Z,10.00
2023-02-25T04:55:09.793Z,11.23
2023-02-25T04:56:42.876Z,12.00
2023-02-25T04:58:15.808Z,14.60
2023-02-25T04:59:48.967Z,10.73
2023-02-25T05:01:22.171Z,9.80
2023-02-25T05:02:55.404Z,11.07
2023-02-25T05:04:28.536Z,8.63
2023-02-25T05:06:00.513Z,12.02
2023-02-25T05:07:33.490Z,11.20
2023-02-25T05:09:09.315Z,9.60
2023-02-25T05:10:43.224Z,8.27
2023-02-25T05:12:16.633Z,12.18
2023-02-25T05:15:21.633Z,7.20
2023-02-25T05:16:54.661Z,12.35
2023-02-25T05:18:27.630Z,11.32
2023-02-25T05:19:59.753Z,8.50
2023-02-25T05:21:32.812Z,8.98
2023-02-25T05:23:05.839Z,13.35
2023-02-25T05:24:39.650Z,9.80
2023-02-25T05:26:13.998Z,10.85
2023-02-25T05:27:46.010Z,7.32
2023-02-25T05:29:19.036Z,10.02
2023-02-25T05:30:52.708Z,12.35
2023-02-25T05:32:25.882Z,11.60
2023-02-25T05:33:58.977Z,10.73
2023-02-25T05:35:32.569Z,12.30
2023-02-25T05:37:05.536Z,10.75
2023-02-25T05:38:38.486Z,9.55
2023-02-25T05:40:14.058Z,11.68
2023-02-25T05:41:47.259Z,9.60
2023-02-25T05:43:19.299Z,12.60
2023-02-25T05:44:52.280Z,9.85
2023-02-25T05:46:26.645Z,8.95
2023-02-25T05:48:00.117Z,8.90
2023-02-25T05:49:33.140Z,8.85
2023-02-25T05:51:08.003Z,11.20
2023-02-25T05:52:39.980Z,9.32
2023-02-25T05:54:12.932Z,11.55
2023-02-25T05:55:47.649Z,8.73
2023-02-25T05:57:20.626Z,8.07
2023-02-25T05:58:53.856Z,7.82
2023-02-25T06:00:26.903Z,14.32
2023-02-25T06:01:59.997Z,12.60
2023-02-25T06:03:33.041Z,11.05
2023-02-25T06:05:07.084Z,12.02
2023-02-25T06:06:40.550Z,10.82
2023-02-25T06:08:13.815Z,11.45
2023-02-25T06:09:46.995Z,12.02
2023-02-25T06:11:24.548Z,9.48
2023-02-25T06:12:57.498Z,11.15
2023-02-25T06:14:30.440Z,13.57
2023-02-25T06:16:03.670Z,17.33
2023-02-25T06:17:36.715Z,7.38
2023-02-25T06:19:11.697Z,13.70
2023-02-25T06:20:44.711Z,9.35
2023-02-25T06:22:17.685Z,8.98
2023-02-25T06:23:50.470Z,8.57
2023-02-25T06:25:29.884Z,10.57
2023-02-25T06:27:04.249Z,8.90
2023-02-25T06:28:37.294Z,10.27
2023-02-25T06:30:11.624Z,8.77
2023-02-25T06:31:44.766Z,9.07
2023-02-25T06:33:16.734Z,10.88
2023-02-25T06:34:49.751Z,6.68
2023-02-25T06:36:23.047Z,9.15
2023-02-25T06:37:56.938Z,8.10
2023-02-25T06:39:30.018Z,8.15
2023-02-25T06:41:07.222Z,12.27
2023-02-25T06:42:41.531Z,9.43
2023-02-25T06:44:15.870Z,11.57
2023-02-25T06:45:48.022Z,8.85
2023-02-25T06:47:23.117Z,10.23
2023-02-25T06:48:57.305Z,11.15
2023-02-25T06:50:30.388Z,10.38
2023-02-25T06:52:03.389Z,10.73
2023-02-25T06:53:36.564Z,6.45
2023-02-25T06:55:10.832Z,7.10
2023-02-25T06:56:43.954Z,8.00
2023-02-25T06:58:18.757Z,9.80
2023-02-25T06:59:53.372Z,8.63
2023-02-25T07:01:27.259Z,10.20
2023-02-25T07:03:03.158Z,8.77
2023-02-25T07:04:36.180Z,9.88
2023-02-25T07:06:09.977Z,8.77
2023-02-25T07:07:43.125Z,8.68
2023-02-25T07:09:16.107Z,10.18
2023-02-25T07:10:49.147Z,8.80
2023-02-25T07:12:22.603Z,11.02
2023-02-25T07:13:56.949Z,8.27
2023-02-25T07:15:29.980Z,7.50
2023-02-25T07:17:03.833Z,6.78
2023-02-25T07:18:36.960Z,9.82
2023-02-25T07:20:11.946Z,8.90
2023-02-25T07:21:45.455Z,9.55
2023-02-25T07:23:18.374Z,7.82
2023-02-25T07:24:51.273Z,7.97
2023-02-25T07:26:28.105Z,9.05
2023-02-25T07:28:01.259Z,6.38
2023-02-25T07:29:35.624Z,10.73
2023-02-25T07:31:11.445Z,7.95
2023-02-25T07:32:45.409Z,9.93
2023-02-25T07:34:19.375Z,6.85
2023-02-25T07:35:54.679Z,7.30
2023-02-25T07:37:27.616Z,10.88
2023-02-25T07:39:02.117Z,11.77
2023-02-25T07:40:35.077Z,9.52
2023-02-25T07:42:08.010Z,12.75
2023-02-25T07:43:40.837Z,7.85
2023-02-25T07:45:15.361Z,14.27
2023-02-25T07:46:48.398Z,13.32
2023-02-25T07:48:23.678Z,12.05
2023-02-25T07:49:56.663Z,13.80
2023-02-25T07:51:29.779Z,11.70
2023-02-25T07:53:02.723Z,8.80
2023-02-25T07:54:35.754Z,13.90
2023-02-25T07:56:09.157Z,10.40
2023-02-25T07:59:14.911Z,9.73
2023-02-25T08:00:49.194Z,10.98
2023-02-25T08:02:22.585Z,8.20
2023-02-25T08:05:29.507Z,9.70
2023-02-25T08:07:02.681Z,10.07
2023-02-25T08:10:06.980Z,9.57
2023-02-25T08:11:40.863Z,10.20
2023-02-25T08:13:14.282Z,9.30
2023-02-25T08:16:22.090Z,12.15
2023-02-25T08:17:55.779Z,8.68
2023-02-25T08:19:28.924Z,9.75
2023-02-25T08:21:02.989Z,11.25
2023-02-25T08:22:36.152Z,12.60
2023-02-25T08:24:09.673Z,8.77
2023-02-25T08:25:41.582Z,8.70
2023-02-25T08:27:14.521Z,7.28
2023-02-25T08:28:47.943Z,11.63
2023-02-25T08:31:56.547Z,8.50
2023-02-25T08:33:29.809Z,9.15
2023-02-25T08:35:02.915Z,9.10
2023-02-25T08:36:37.015Z,11.05
2023-02-25T08:38:10.419Z,9.13
2023-02-25T08:41:16.178Z,9.45
2023-02-25T08:42:49.093Z,8.90
2023-02-25T08:44:22.889Z,10.68
2023-02-25T08:45:56.958Z,13.50
2023-02-25T08:47:32.108Z,9.48
2023-02-25T08:49:07.252Z,13.50
2023-02-25T08:50:41.082Z,7.97
2023-02-25T08:52:16.032Z,9.00
2023-02-25T08:53:52.438Z,9.57
2023-02-25T08:55:26.112Z,15.20
2023-02-25T08:57:00.308Z,9.60
2023-02-25T08:58:33.505Z,8.45
2023-02-25T09:00:09.609Z,13.82
2023-02-25T09:01:46.014Z,10.80
2023-02-25T09:03:20.732Z,10.20
2023-02-25T09:04:54.033Z,10.30
2023-02-25T09:08:01.096Z,5.80
2023-02-25T09:09:34.254Z,10.18
2023-02-25T09:11:07.589Z,10.85
2023-02-25T09:12:42.259Z,10.00
2023-02-25T09:14:15.980Z,9.82
2023-02-25T09:15:57.058Z,12.13
2023-02-25T09:17:29.994Z,11.32
2023-02-25T09:19:05.036Z,8.68
2023-02-25T09:20:37.943Z,10.68
2023-02-25T09:22:11.647Z,9.02
2023-02-25T09:23:44.594Z,9.05
2023-02-25T09:25:17.632Z,8.10
2023-02-25T09:26:50.732Z,10.40
2023-02-25T09:28:24.608Z,8.23
2023-02-25T09:29:57.624Z,12.40
2023-02-25T09:31:30.642Z,9.63
2023-02-25T09:33:03.878Z,15.43
2023-02-25T09:34:38.624Z,17.40
2023-02-25T09:36:13.771Z,8.20
2023-02-25T09:37:46.672Z,12.15
2023-02-25T09:39:19.768Z,13.85
2023-02-25T09:40:53.248Z,8.15
2023-02-25T09:42:31.389Z,8.27
2023-02-25T09:44:08.453Z,10.68
2023-02-25T09:45:47.124Z,9.48
2023-02-25T09:47:27.409Z,8.20
2023-02-25T09:49:05.626Z,10.30
2023-02-25T09:50:47.282Z,11.23
2023-02-25T09:52:28.638Z,12.32
2023-02-25T09:54:12.298Z,13.35
2023-02-25T09:55:48.709Z,8.85
2023-02-25T09:57:23.505Z,10.23
2023-02-25T09:58:59.222Z,9.75
2023-02-25T10:00:34.869Z,12.80
2023-02-25T10:02:21.664Z,10.88
2023-02-25T10:04:00.025Z,9.02
2023-02-25T10:05:41.950Z,10.07
2023-02-25T10:07:20.965Z,7.70
2023-02-25T10:09:02.772Z,12.27
2023-02-25T10:10:46.734Z,9.45
2023-02-25T10:12:31.141Z,9.70
2023-02-25T10:14:17.091Z,9.85
2023-02-25T10:15:59.747Z,12.13
2023-02-25T10:17:43.259Z,9.00
2023-02-25T10:19:30.693Z,12.77
2023-02-25T10:21:15.255Z,11.10
2023-02-25T10:23:00.113Z,13.77
2023-02-25T10:24:39.822Z,13.55
2023-02-25T10:26:18.972Z,9.13
2023-02-25T10:27:56.121Z,8.65
2023-02-25T10:29:35.079Z,11.15
2023-02-25T10:31:12.047Z,10.90
2023-02-25T10:32:47.358Z,7.63
2023-02-25T10:34:25.929Z,7.03
2023-02-25T10:36:06.780Z,8.73
2023-02-25T10:37:39.664Z,6.53
2023-02-25T10:39:14.001Z,6.45
2023-02-25T10:40:46.979Z,9.57
2023-02-25T10:42:19.885Z,8.82
2023-02-25T10:43:54.696Z,10.95
2023-02-25T10:45:29.594Z,6.70
2023-02-25T10:47:05.572Z,8.85
2023-02-25T10:48:39.270Z,8.18
2023-02-25T10:50:35.490Z,7.97
2023-02-25T10:52:18.022Z,7.53
2023-02-25T10:54:06.614Z,8.23
2023-02-25T10:55:55.075Z,7.70
2023-02-25T10:57:34.218Z,13.20
2023-02-25T10:59:09.485Z,7.20
2023-02-25T11:00:44.291Z,10.55
2023-02-25T11:02:25.621Z,9.35
2023-02-25T11:04:01.009Z,8.32
2023-02-25T11:05:41.378Z,11.13
2023-02-25T11:07:29.188Z,12.25
2023-02-25T11:09:04.168Z,10.50
2023-02-25T11:10:37.091Z,15.60
2023-02-25T11:12:20.226Z,9.02
2023-02-25T11:14:01.965Z,7.30
2023-02-25T11:15:45.255Z,9.10
2023-02-25T11:17:21.182Z,7.95
2023-02-25T11:18:58.231Z,7.65
2023-02-25T11:20:32.257Z,7.97
2023-02-25T11:22:10.594Z,10.27
2023-02-25T11:23:47.724Z,9.63
2023-02-25T11:25:23.847Z,7.57
2023-02-25T11:26:57.045Z,10.77
2023-02-25T11:28:35.660Z,8.10
2023-02-25T11:30:17.387Z,9.27
2023-02-25T11:31:54.681Z,8.40
2023-02-25T11:33:32.993Z,7.15
2023-02-25T11:35:10.172Z,11.45
2023-02-25T11:36:43.320Z,7.60
2023-02-25T11:38:26.363Z,7.97
2023-02-25T11:39:59.269Z,8.10
2023-02-25T11:41:33.129Z,12.95
2023-02-25T11:43:18.162Z,10.15
2023-02-25T11:45:00.687Z,10.30
2023-02-25T11:46:34.691Z,9.73
2023-02-25T11:48:19.553Z,9.35
2023-02-25T11:50:08.349Z,8.23
2023-02-25T11:51:47.012Z,7.88
2023-02-25T11:53:32.742Z,9.73
2023-02-25T11:55:19.961Z,11.60
2023-02-25T11:56:57.750Z,7.32
2023-02-25T11:58:40.269Z,11.15
2023-02-25T12:00:25.525Z,6.63
2023-02-25T12:02:31.790Z,6.43
2023-02-25T12:04:34.405Z,5.80
2023-02-25T12:06:19.861Z,13.95
2023-02-25T12:08:18.210Z,11.57
2023-02-25T12:10:19.584Z,11.70
2023-02-25T12:12:12.804Z,11.95
2023-02-25T12:14:20.561Z,10.57
2023-02-25T12:16:27.715Z,7.43
2023-02-25T12:18:19.412Z,8.48
2023-02-25T12:20:34.844Z,6.65
2023-02-25T12:22:52.589Z,8.18
2023-02-25T12:24:47.049Z,9.18
2023-02-25T12:26:31.003Z,11.20
2023-02-25T12:28:31.231Z,11.55
2023-02-25T12:30:43.557Z,12.07
2023-02-25T12:32:31.332Z,10.75
2023-02-25T12:34:25.038Z,11.65
2023-02-25T12:36:08.514Z,10.18
2023-02-25T12:38:26.793Z,12.00
2023-02-25T12:40:09.148Z,10.15
2023-02-25T12:41:47.593Z,9.80
2023-02-25T12:43:29.856Z,12.45
2023-02-25T12:45:16.312Z,12.40
2023-02-25T12:47:03.021Z,8.48
2023-02-25T12:49:03.817Z,8.80
2023-02-25T12:50:55.538Z,9.38
2023-02-25T12:52:39.286Z,10.57
2023-02-25T12:54:26.556Z,9.55
2023-02-25T12:56:26.611Z,6.72
2023-02-25T12:58:20.193Z,7.13
2023-02-25T13:00:05.570Z,7.18
2023-02-25T13:01:57.500Z,6.47
2023-02-25T13:03:55.762Z,3.35
2023-02-25T13:06:01.404Z,4.03
2023-02-25T13:08:02.842Z,4.45
2023-02-25T13:10:01.900Z,3.83
2023-02-25T13:12:10.035Z,6.07
2023-02-25T13:14:01.721Z,5.35
2023-02-25T13:15:46.769Z,8.15
2023-02-25T13:17:52.256Z,10.05
2023-02-25T13:19:55.467Z,5.72
2023-02-25T13:21:43.415Z,4.70
2023-02-25T13:23:33.237Z,5.80
2023-02-25T13:25:15.445Z,2.63
2023-02-25T13:27:13.797Z,2.55
2023-02-25T13:29:07.898Z,2.80
2023-02-25T13:30:47.600Z,4.00
2023-02-25T13:32:29.980Z,2.72
2023-02-25T13:34:15.998Z,1.73
2023-02-25T13:35:57.533Z,2.35
2023-02-25T13:37:42.288Z,2.30
2023-02-25T13:39:36.704Z,2.67
2023-02-25T13:43:14.089Z,1.30
2023-02-25T13:45:23.704Z,1.53
2023-02-25T13:47:23.850Z,1.97
2023-02-25T13:49:23.110Z,3.28
2023-02-25T13:51:17.956Z,2.28
2023-02-25T13:53:14.248Z,3.47
2023-02-25T13:55:17.678Z,2.63
2023-02-25T13:56:58.578Z,3.60
2023-02-25T13:58:42.354Z,4.90
2023-02-25T14:00:38.308Z,4.05
2023-02-25T14:02:50.905Z,2.70
2023-02-25T14:04:51.072Z,4.38
2023-02-25T14:06:44.145Z,3.05
2023-02-25T14:08:44.585Z,4.50
2023-02-25T14:10:30.012Z,2.55
2023-02-25T14:12:13.107Z,2.72
2023-02-25T14:14:05.529Z,4.18
2023-02-25T14:15:48.535Z,2.00
2023-02-25T14:17:41.063Z,3.83
2023-02-25T14:19:35.692Z,1.98
2023-02-25T14:21:34.522Z,4.60
2023-02-25T14:23:13.732Z,2.00
2023-02-25T14:24:51.671Z,3.60
2023-02-25T14:26:34.393Z,4.80
2023-02-25T14:28:15.528Z,3.97
2023-02-25T14:30:02.293Z,5.22
2023-02-25T14:31:45.039Z,3.90
2023-02-25T14:33:40.093Z,5.75
2023-02-25T14:35:28.920Z,6.07
2023-02-25T14:37:14.728Z,5.35
2023-02-25T14:39:15.513Z,5.18
2023-02-25T14:40:56.979Z,5.97
2023-02-25T14:42:58.711Z,4.85
2023-02-25T14:44:39.672Z,8.00
2023-02-25T14:46:31.473Z,5.40
2023-02-25T14:48:07.488Z,7.38
2023-02-25T14:49:46.234Z,7.05
2023-02-25T14:51:51.085Z,7.78
2023-02-25T14:57:08.842Z,3.88
2023-02-25T14:58:58.925Z,4.50
2023-02-25T15:01:09.964Z,5.78
2023-02-25T15:03:03.375Z,6.30
2023-02-25T15:04:55.064Z,7.95
2023-02-25T15:06:53.129Z,6.40
2023-02-25T15:08:40.095Z,4.45
2023-02-25T15:10:34.689Z,6.50
2023-02-25T15:12:26.263Z,5.30
2023-02-25T15:14:27.350Z,2.60
2023-02-25T15:16:28.455Z,5.00
2023-02-25T15:18:33.478Z,3.08
2023-02-25T15:20:23.320Z,3.13
2023-02-25T15:22:32.799Z,2.97
2023-02-25T15:24:11.303Z,2.60
2023-02-25T15:25:50.512Z,4.18
2023-02-25T15:27:56.517Z,3.33
2023-02-25T15:29:58.724Z,2.63
2023-02-25T15:31:33.933Z,2.63
2023-02-25T15:33:15.880Z,3.63
2023-02-25T15:34:56.970Z,5.43
2023-02-25T15:36:44.903Z,2.10
2023-02-25T15:38:21.194Z,2.38
2023-02-25T15:39:57.544Z,4.93
2023-02-25T15:41:45.922Z,5.35
2023-02-25T15:43:44.806Z,5.13
2023-02-25T15:45:39.778Z,4.60
2023-02-25T15:47:25.484Z,4.18
2023-02-25T15:49:06.998Z,5.18
2023-02-25T15:50:53.253Z,5.30
2023-02-25T15:52:57.707Z,3.67
2023-02-25T15:54:50.151Z,4.45
2023-02-25T15:56:47.379Z,3.35
2023-02-25T15:58:45.903Z,4.35
2023-02-25T16:00:55.376Z,4.82
2023-02-25T16:02:42.226Z,4.90
2023-02-25T16:04:41.678Z,3.33
2023-02-25T16:06:19.935Z,3.90
2023-02-25T16:08:16.685Z,6.03
2023-02-25T16:09:55.350Z,5.60
2023-02-25T16:11:35.644Z,9.95
2023-02-25T16:13:15.739Z,5.00
2023-02-25T16:14:49.083Z,5.10
2023-02-25T16:17:57.684Z,5.00
2023-02-25T16:19:35.938Z,5.82
2023-02-25T16:21:15.640Z,3.88
2023-02-25T16:22:49.910Z,2.92
2023-02-25T16:24:25.083Z,5.93
2023-02-25T16:26:09.154Z,3.83
2023-02-25T16:27:55.232Z,5.57
2023-02-25T16:29:41.017Z,6.00
2023-02-25T16:31:19.478Z,3.05
2023-02-25T16:33:00.190Z,6.22
2023-02-25T16:34:38.181Z,7.38
2023-02-25T16:36:16.497Z,4.32
2023-02-25T16:38:02.656Z,4.90
2023-02-25T16:39:36.760Z,4.63
2023-02-25T16:41:09.793Z,5.60
2023-02-25T16:42:42.731Z,6.38
2023-02-25T16:44:21.662Z,5.63
2023-02-25T16:45:58.622Z,4.55
2023-02-25T16:47:34.837Z,7.07
2023-02-25T16:49:11.715Z,4.90
2023-02-25T16:50:48.264Z,6.03
2023-02-25T16:52:25.642Z,4.00
2023-02-25T16:54:01.295Z,5.60
2023-02-25T16:55:40.534Z,7.50
2023-02-25T16:57:21.811Z,4.50
2023-02-25T16:59:04.976Z,3.90
2023-02-25T17:00:51.664Z,2.80
2023-02-25T17:02:25.984Z,4.60
2023-02-25T17:04:09.449Z,4.20
2023-02-25T17:05:42.349Z,3.05
2023-02-25T17:07:20.076Z,3.22
2023-02-25T17:08:53.095Z,7.18
2023-02-25T17:10:28.933Z,9.68
2023-02-25T17:12:03.812Z,5.47
2023-02-25T17:13:38.589Z,4.15
2023-02-25T17:15:17.968Z,7.78
2023-02-25T17:16:52.696Z,2.90
2023-02-25T17:18:30.975Z,5.70
2023-02-25T17:20:06.321Z,5.05
2023-02-25T17:21:41.443Z,2.17
2023-02-25T17:23:16.434Z,2.70
2023-02-25T17:24:50.712Z,3.15
2023-02-25T17:26:24.577Z,4.68
2023-02-25T17:27:59.226Z,4.00
2023-02-25T17:29:36.705Z,4.50
2023-02-25T17:31:12.952Z,4.68
2023-02-25T17:32:59.038Z,2.78
2023-02-25T17:34:35.610Z,2.33
2023-02-25T17:36:12.070Z,5.50
2023-02-25T17:37:45.049Z,2.75
2023-02-25T17:39:21.023Z,4.55
2023-02-25T17:40:55.532Z,3.13
2023-02-25T17:42:31.183Z,2.53
2023-02-25T17:44:04.289Z,4.93
2023-02-25T17:45:51.049Z,3.20
2023-02-25T17:47:27.388Z,3.38
2023-02-25T17:49:05.104Z,5.73
2023-02-25T17:50:38.130Z,4.07
2023-02-25T17:52:20.138Z,5.47
2023-02-25T17:53:57.770Z,3.40
2023-02-25T17:55:35.080Z,5.35
2023-02-25T17:57:10.991Z,4.07
2023-02-25T17:58:43.417Z,4.65
2023-02-25T18:00:23.720Z,6.68
2023-02-25T18:01:58.877Z,3.28
2023-02-25T18:03:42.946Z,4.00
2023-02-25T18:05:25.309Z,3.78
2023-02-25T18:06:58.316Z,3.15
2023-02-25T18:08:31.923Z,4.30
2023-02-25T18:10:08.389Z,3.20
2023-02-25T18:11:41.413Z,5.53
2023-02-25T18:13:25.262Z,4.25
2023-02-25T18:16:41.819Z,3.95
2023-02-25T18:18:22.047Z,4.32
2023-02-25T18:19:57.375Z,2.88
2023-02-25T18:21:31.806Z,2.53
2023-02-25T18:23:07.295Z,4.73
2023-02-25T18:24:40.230Z,4.80
2023-02-25T18:26:15.849Z,1.92
2023-02-25T18:27:54.895Z,5.07
2023-02-25T18:29:27.805Z,4.00
2023-02-25T18:31:01.349Z,2.65
2023-02-25T18:32:35.182Z,3.20
2023-02-25T18:34:08.204Z,2.73
2023-02-25T18:35:44.009Z,2.83
2023-02-25T18:37:20.359Z,1.93
2023-02-25T18:38:56.303Z,3.43
2023-02-25T18:40:31.344Z,2.93
2023-02-25T18:42:05.253Z,3.30
2023-02-25T18:43:41.933Z,2.93
2023-02-25T18:45:16.955Z,3.10
2023-02-25T18:46:49.944Z,3.97
2023-02-25T18:48:22.865Z,3.45
2023-02-25T18:49:55.797Z,5.93
2023-02-25T18:51:29.110Z,3.03
2023-02-25T18:53:03.979Z,3.55
2023-02-25T18:54:36.931Z,2.10
2023-02-25T18:56:15.557Z,2.90
2023-02-25T18:57:49.061Z,4.03
2023-02-25T18:59:21.980Z,2.63
2023-02-25T19:00:56.240Z,5.18
2023-02-25T19:02:31.376Z,3.73
2023-02-25T19:04:04.419Z,4.78
2023-02-25T19:05:37.618Z,5.07
2023-02-25T19:07:11.837Z,1.77
2023-02-25T19:08:46.366Z,4.67
2023-02-25T19:10:21.583Z,2.85
2023-02-25T19:11:54.549Z,4.27
2023-02-25T19:13:30.917Z,4.68
2023-02-25T19:15:06.106Z,5.30
2023-02-25T19:16:39.033Z,3.75
2023-02-25T19:18:13.576Z,5.45
2023-02-25T19:19:46.554Z,5.40
2023-02-25T19:21:21.243Z,4.57
2023-02-25T19:22:54.839Z,3.87
2023-02-25T19:24:29.155Z,4.20
2023-02-25T19:26:02.384Z,6.10
2023-02-25T19:27:35.529Z,5.20
2023-02-25T19:29:08.456Z,4.95
2023-02-25T19:30:43.346Z,4.68
2023-02-25T19:32:16.732Z,5.20
2023-02-25T19:35:22.579Z,4.07
2023-02-25T19:36:55.513Z,2.65
2023-02-25T19:38:28.571Z,5.22
2023-02-25T19:40:04.187Z,4.60
2023-02-25T19:41:38.443Z,4.45
2023-02-25T19:43:11.458Z,4.53
2023-02-25T19:44:44.356Z,2.72
2023-02-25T19:46:17.997Z,2.80
2023-02-25T19:47:51.644Z,2.60
2023-02-25T19:49:24.654Z,3.13
2023-02-25T19:50:57.627Z,3.05
2023-02-25T19:52:30.898Z,2.92
2023-02-25T19:54:04.208Z,3.47
2023-02-25T19:57:12.474Z,4.17
2023-02-25T20:00:21.323Z,2.77
2023-02-25T20:01:54.260Z,4.77
2023-02-25T20:03:27.201Z,3.50
2023-02-25T20:05:00.239Z,4.32
2023-02-25T20:06:34.673Z,4.38
2023-02-25T20:08:07.647Z,3.80
2023-02-25T20:09:40.696Z,6.38
2023-02-25T20:11:15.032Z,4.28
2023-02-25T20:12:49.101Z,3.00
2023-02-25T20:14:22.915Z,3.83
2023-02-25T20:16:00.903Z,5.57
2023-02-25T20:17:36.078Z,4.47
2023-02-25T20:19:09.769Z,3.77
2023-02-25T20:20:43.029Z,4.87
2023-02-25T20:22:15.901Z,4.68
2023-02-25T20:23:48.878Z,3.63
2023-02-25T20:25:22.075Z,4.35
2023-02-25T20:26:56.521Z,4.35
2023-02-25T20:28:29.489Z,5.72
2023-02-25T20:30:03.533Z,4.55
2023-02-25T20:31:36.545Z,4.87
2023-02-25T20:33:09.467Z,2.97
2023-02-25T20:34:43.076Z,5.22
2023-02-25T20:36:21.178Z,2.93
2023-02-25T20:38:16.794Z,3.10
2023-02-25T20:39:54.397Z,4.57
2023-02-25T20:41:28.212Z,4.07
2023-02-25T20:43:02.709Z,6.63
2023-02-25T20:44:35.985Z,5.47
2023-02-25T20:46:22.154Z,5.32
2023-02-25T20:47:56.095Z,3.37
2023-02-25T20:49:29.440Z,3.43
2023-02-25T20:52:35.537Z,3.50
2023-02-25T20:54:10.191Z,4.10
2023-02-25T20:55:43.162Z,2.20
2023-02-25T20:57:19.134Z,2.00
2023-02-25T20:58:54.801Z,2.23
2023-02-25T21:00:29.941Z,2.23
2023-02-25T21:02:02.845Z,1.90
2023-02-25T21:03:35.764Z,3.88
2023-02-25T21:05:09.261Z,1.08
2023-02-25T21:08:15.167Z,2.50
2023-02-25T21:09:48.125Z,3.42
2023-02-25T21:11:21.855Z,3.38
2023-02-25T21:12:55.316Z,3.90
2023-02-25T21:14:31.549Z,2.90
2023-02-25T21:16:06.964Z,4.90
2023-02-25T21:17:40.028Z,4.00
2023-02-25T21:19:13.008Z,3.83
2023-02-25T21:20:45.974Z,2.22
2023-02-25T21:22:18.886Z,2.30
2023-02-25T21:23:52.591Z,2.47
2023-02-25T21:25:25.632Z,2.47
2023-02-25T21:26:58.632Z,1.23
2023-02-25T21:28:32.744Z,3.10
2023-02-25T21:30:08.726Z,2.60
2023-02-25T21:31:42.526Z,2.80
2023-02-25T21:33:15.824Z,3.50
2023-02-25T21:34:49.246Z,5.05
2023-02-25T21:37:55.221Z,2.83
2023-02-25T21:39:28.442Z,3.47
2023-02-25T21:41:07.214Z,3.25
2023-02-25T21:42:40.152Z,2.93
2023-02-25T21:44:13.182Z,2.78
2023-02-25T21:45:55.506Z,2.53
2023-02-25T21:47:28.460Z,4.67
2023-02-25T21:49:01.401Z,3.97
2023-02-25T21:50:34.763Z,3.33
2023-02-25T21:53:40.485Z,2.27
2023-02-25T21:55:13.366Z,6.32
2023-02-25T21:56:46.295Z,2.25
2023-02-25T21:58:19.416Z,4.50
2023-02-25T21:59:53.711Z,1.50
2023-02-25T22:01:30.562Z,3.53
2023-02-25T22:03:03.747Z,2.63
2023-02-25T22:04:36.864Z,1.85
2023-02-25T22:06:10.538Z,5.47
2023-02-25T22:07:43.494Z,4.47
2023-02-25T22:09:16.513Z,3.42
2023-02-25T22:10:48.752Z,3.03
2023-02-25T22:12:21.754Z,2.50
2023-02-25T22:13:55.118Z,3.05
2023-02-25T22:15:28.445Z,4.37
2023-02-25T22:17:02.914Z,5.45
2023-02-25T22:18:36.486Z,3.47
2023-02-25T22:20:10.758Z,3.37
2023-02-25T22:21:43.909Z,2.50
2023-02-25T22:23:16.990Z,5.35
2023-02-25T22:24:50.074Z,3.00
2023-02-25T22:26:25.503Z,2.63
2023-02-25T22:27:59.549Z,4.53
2023-02-25T22:29:32.619Z,3.47
2023-02-25T22:31:06.575Z,2.60
2023-02-25T22:32:41.070Z,5.53
2023-02-25T22:34:14.404Z,3.47
2023-02-25T22:37:25.789Z,3.00
2023-02-25T22:38:58.789Z,3.80
2023-02-25T22:40:31.892Z,6.13
2023-02-25T22:42:05.009Z,2.58
2023-02-25T22:43:37.135Z,2.72
2023-02-25T22:45:11.345Z,4.80
2023-02-25T22:46:44.663Z,3.87
2023-02-25T22:49:51.950Z,3.40
2023-02-25T22:51:27.248Z,4.72
2023-02-25T22:52:59.605Z,7.33
2023-02-25T22:54:32.898Z,3.77
2023-02-25T22:56:08.961Z,4.47
2023-02-25T22:57:41.292Z,4.20
2023-02-25T22:59:15.027Z,3.70
2023-02-25T23:00:47.487Z,2.40
2023-02-25T23:02:20.480Z,3.28
2023-02-25T23:03:56.073Z,2.97
2023-02-25T23:05:28.041Z,6.57
2023-02-25T23:07:01.112Z,4.63
2023-02-25T23:08:33.706Z,3.85
2023-02-25T23:10:08.602Z,5.15
2023-02-25T23:11:43.772Z,5.80
2023-02-25T23:13:16.814Z,3.23
2023-02-25T23:14:49.814Z,3.55
2023-02-25T23:16:25.518Z,4.57
2023-02-25T23:18:03.359Z,4.33
2023-02-25T23:19:37.834Z,5.63
2023-02-25T23:21:15.677Z,5.60
2023-02-25T23:22:51.010Z,4.83
2023-02-25T23:24:23.987Z,5.53
2023-02-25T23:25:55.964Z,3.67
2023-02-25T23:27:30.432Z,4.67
2023-02-25T23:29:06.469Z,2.80
2023-02-25T23:30:40.387Z,4.97
2023-02-25T23:32:13.692Z,5.77
2023-02-25T23:35:21.098Z,7.57
2023-02-25T23:36:58.808Z,4.27
2023-02-25T23:38:32.071Z,3.33
2023-02-25T23:40:06.438Z,5.63
2023-02-25T23:41:40.015Z,6.10
2023-02-25T23:43:13.134Z,4.43
2023-02-25T23:44:46.420Z,5.10
2023-02-25T23:46:19.535Z,5.88